createdAt,value
2024-03-05T00:00:30.331Z,63.10
2024-03-05T00:02:57.024Z,55.33
2024-03-05T00:05:24.469Z,67.33
2024-03-05T00:07:52.205Z,74.80
2024-03-05T00:10:19.222Z,68.30
2024-03-05T00:12:47.293Z,62.33
2024-03-05T00:15:14.068Z,69.87
2024-03-05T00:17:40.816Z,72.10
2024-03-05T00:20:14.258Z,70.00
2024-03-05T00:22:42.966Z,79.60
2024-03-05T00:25:09.765Z,69.30
2024-03-05T00:27:36.448Z,82.23
2024-03-05T00:30:05.478Z,80.77
2024-03-05T00:32:33.435Z,71.80
2024-03-05T00:35:00.826Z,68.40
2024-03-05T00:37:27.746Z,66.23
2024-03-05T00:39:54.658Z,68.80
2024-03-05T00:42:21.337Z,68.30
2024-03-05T00:44:48.019Z,65.07
2024-03-05T00:47:14.780Z,79.70
2024-03-05T00:49:41.539Z,72.97
2024-03-05T00:52:08.894Z,74.33
2024-03-05T00:54:35.689Z,62.97
2024-03-05T00:57:02.407Z,67.73
2024-03-05T00:59:29.075Z,64.50
2024-03-05T01:01:57.032Z,68.07
2024-03-05T01:04:24.397Z,61.43
2024-03-05T01:06:51.428Z,58.20
2024-03-05T01:09:20.152Z,58.63
2024-03-05T01:11:47.350Z,63.77
2024-03-05T01:14:15.159Z,67.30
2024-03-05T01:16:41.961Z,63.90
2024-03-05T01:19:08.921Z,55.70
2024-03-05T01:21:35.631Z,60.73
2024-03-05T01:24:02.592Z,64.10
2024-03-05T01:26:29.719Z,60.27
2024-03-05T01:28:56.599Z,69.10
2024-03-05T01:31:24.004Z,78.37
2024-03-05T01:33:51.534Z,58.97
2024-03-05T01:36:20.855Z,64.87
2024-03-05T01:38:47.923Z,78.57
2024-03-05T01:41:14.648Z,66.80
2024-03-05T01:43:41.888Z,58.10
2024-03-05T01:46:09.629Z,76.77
2024-03-05T01:48:36.427Z,66.53
2024-03-05T01:51:03.579Z,55.77
2024-03-05T01:53:30.633Z,67.07
2024-03-05T01:55:57.878Z,57.20
2024-03-05T01:58:26.897Z,64.47
2024-03-05T02:00:54.028Z,70.10
2024-03-05T02:03:21.190Z,74.67
2024-03-05T02:05:50.405Z,70.17
2024-03-05T02:08:19.035Z,62.07
2024-03-05T02:10:48.508Z,65.00
2024-03-05T02:13:15.441Z,56.40
2024-03-05T02:15:42.201Z,71.97
2024-03-05T02:18:09.083Z,65.20
2024-03-05T02:20:36.116Z,69.83
2024-03-05T02:23:06.122Z,70.10
2024-03-05T02:25:32.882Z,74.03
2024-03-05T02:28:02.206Z,54.67
2024-03-05T02:30:30.522Z,68.17
2024-03-05T02:32:58.378Z,61.90
2024-03-05T02:35:25.126Z,68.80
2024-03-05T02:37:51.837Z,74.47
2024-03-05T02:40:19.195Z,71.73
2024-03-05T02:42:46.019Z,71.47
2024-03-05T02:45:12.829Z,73.53
2024-03-05T02:47:43.403Z,74.03
2024-03-05T02:50:11.552Z,64.87
2024-03-05T02:52:39.978Z,70.87
2024-03-05T02:55:11.388Z,61.67
2024-03-05T02:57:42.523Z,83.20
2024-03-05T03:00:11.572Z,68.33
2024-03-05T03:02:39.028Z,74.77
2024-03-05T03:05:06.891Z,72.63
2024-03-05T03:07:34.111Z,73.87
2024-03-05T03:10:00.926Z,92.50
2024-03-05T03:12:27.792Z,71.13
2024-03-05T03:14:55.304Z,77.37
2024-03-05T03:17:22.028Z,93.43
2024-03-05T03:19:48.782Z,91.27
2024-03-05T03:22:15.610Z,100.97
2024-03-05T03:24:43.404Z,107.13
2024-03-05T03:27:10.292Z,95.63
2024-03-05T03:29:38.193Z,122.37
2024-03-05T03:32:05.396Z,105.30
2024-03-05T03:34:32.116Z,121.17
2024-03-05T03:36:59.050Z,115.87
2024-03-05T03:39:26.110Z,126.40
2024-03-05T03:41:56.349Z,129.97
2024-03-05T03:44:23.693Z,120.77
2024-03-05T03:46:51.301Z,126.17
2024-03-05T03:49:26.370Z,135.23
2024-03-05T03:51:55.456Z,115.83
2024-03-05T03:54:22.949Z,136.27
2024-03-05T03:56:50.354Z,129.20
2024-03-05T03:59:17.499Z,110.43
2024-03-05T04:01:48.526Z,123.47
2024-03-05T04:04:15.429Z,132.00
2024-03-05T04:06:42.496Z,134.83
2024-03-05T04:09:09.665Z,116.00
2024-03-05T04:11:37.339Z,107.40
2024-03-05T04:14:04.925Z,123.80
2024-03-05T04:16:32.343Z,124.83
2024-03-05T04:18:59.198Z,108.30
2024-03-05T04:21:26.666Z,114.27
2024-03-05T04:23:53.844Z,109.70
2024-03-05T04:26:27.750Z,109.77
2024-03-05T04:28:56.178Z,103.30
2024-03-05T04:34:01.679Z,114.87
2024-03-05T04:36:28.449Z,106.50
2024-03-05T04:38:55.115Z,104.80
2024-03-05T04:41:21.777Z,105.50
2024-03-05T04:43:49.706Z,86.07
2024-03-05T04:46:16.420Z,101.07
2024-03-05T04:48:43.788Z,87.37
2024-03-05T04:51:11.132Z,99.07
2024-03-05T04:53:37.871Z,88.30
2024-03-05T04:56:05.009Z,88.47
2024-03-05T04:58:31.983Z,84.40
2024-03-05T05:00:58.901Z,79.70
2024-03-05T05:03:25.719Z,90.00
2024-03-05T05:08:21.848Z,92.47
2024-03-05T05:10:49.062Z,98.67
2024-03-05T05:13:15.928Z,90.93
2024-03-05T05:15:42.791Z,79.13
2024-03-05T05:18:10.147Z,89.47
2024-03-05T05:20:36.878Z,90.90
2024-03-05T05:23:04.808Z,91.53
2024-03-05T05:25:31.514Z,100.77
2024-03-05T05:27:58.202Z,122.37
2024-03-05T05:30:25.217Z,92.57
2024-03-05T05:32:52.155Z,102.37
2024-03-05T05:35:19.935Z,100.63
2024-03-05T05:37:46.866Z,87.73
2024-03-05T05:40:20.361Z,116.07
2024-03-05T05:42:50.090Z,110.60
2024-03-05T05:45:17.201Z,118.37
2024-03-05T05:47:52.301Z,109.27
2024-03-05T05:50:20.361Z,126.40
2024-03-05T05:52:53.014Z,109.93
2024-03-05T05:55:21.633Z,125.83
2024-03-05T05:57:49.489Z,118.47
2024-03-05T06:00:24.112Z,111.53
2024-03-05T06:02:54.697Z,102.17
2024-03-05T06:05:27.575Z,118.13
2024-03-05T06:07:57.505Z,128.03
2024-03-05T06:10:24.371Z,118.47
2024-03-05T06:12:51.495Z,122.73
2024-03-05T06:15:18.655Z,126.07
2024-03-05T06:17:46.301Z,122.00
2024-03-05T06:20:14.474Z,126.97
2024-03-05T06:22:42.757Z,113.47
2024-03-05T06:25:10.449Z,121.17
2024-03-05T06:27:40.400Z,126.63
2024-03-05T06:30:19.687Z,132.37
2024-03-05T06:32:48.668Z,120.17
2024-03-05T06:35:16.652Z,121.17
2024-03-05T06:37:48.003Z,118.60
2024-03-05T06:40:17.398Z,116.53
2024-03-05T06:42:52.873Z,108.60
2024-03-05T06:45:29.242Z,125.47
2024-03-05T06:50:35.245Z,112.50
2024-03-05T06:53:20.677Z,103.60
2024-03-05T06:56:06.329Z,122.17
2024-03-05T06:58:37.108Z,107.80
2024-03-05T07:01:08.630Z,119.40
2024-03-05T07:03:36.509Z,114.33
2024-03-05T07:06:08.134Z,110.07
2024-03-05T07:08:35.885Z,106.07
2024-03-05T07:11:06.838Z,126.37
2024-03-05T07:13:36.230Z,125.50
2024-03-05T07:16:08.529Z,106.73
2024-03-05T07:18:37.161Z,96.40
2024-03-05T07:21:04.853Z,96.30
2024-03-05T07:23:31.951Z,104.80
2024-03-05T07:25:59.220Z,97.83
2024-03-05T07:28:27.230Z,91.17
2024-03-05T07:30:55.086Z,99.07
2024-03-05T07:33:22.988Z,103.77
2024-03-05T07:35:49.845Z,98.50
2024-03-05T07:38:17.012Z,105.67
2024-03-05T07:40:46.557Z,90.50
2024-03-05T07:43:13.946Z,88.13
2024-03-05T07:45:41.112Z,98.63
2024-03-05T07:48:08.270Z,88.90
2024-03-05T07:50:35.149Z,102.40
2024-03-05T07:53:01.911Z,92.60
2024-03-05T07:55:32.227Z,92.23
2024-03-05T07:58:02.805Z,92.97
2024-03-05T08:00:29.521Z,92.13
2024-03-05T08:02:56.292Z,86.23
2024-03-05T08:05:24.230Z,86.53
2024-03-05T08:07:55.871Z,90.87
2024-03-05T08:10:23.713Z,82.60
2024-03-05T08:12:55.263Z,83.97
2024-03-05T08:15:23.029Z,91.13
2024-03-05T08:17:50.428Z,91.93
2024-03-05T08:20:22.192Z,81.27
2024-03-05T08:22:49.231Z,84.30
2024-03-05T08:25:17.365Z,85.87
2024-03-05T08:27:44.820Z,93.83
2024-03-05T08:30:17.001Z,79.23
2024-03-05T08:32:44.926Z,85.60
2024-03-05T08:35:14.723Z,90.10
2024-03-05T08:37:47.414Z,76.27
2024-03-05T08:40:16.379Z,94.67
2024-03-05T08:42:56.562Z,88.27
2024-03-05T08:45:24.544Z,87.30
2024-03-05T08:47:53.037Z,93.83
2024-03-05T08:50:21.362Z,98.20
2024-03-05T08:52:49.385Z,85.23
2024-03-05T08:55:18.724Z,82.40
2024-03-05T08:57:46.189Z,79.27
2024-03-05T09:00:32.274Z,87.77
2024-03-05T09:03:09.021Z,94.93
2024-03-05T09:05:36.500Z,103.07
2024-03-05T09:08:03.528Z,89.90
2024-03-05T09:10:30.305Z,85.63
2024-03-05T09:12:57.095Z,81.30
2024-03-05T09:15:24.121Z,93.43
2024-03-05T09:17:50.937Z,84.57
2024-03-05T09:20:18.528Z,92.40
2024-03-05T09:22:47.517Z,86.30
2024-03-05T09:25:16.157Z,80.43
2024-03-05T09:27:46.556Z,99.47
2024-03-05T09:30:16.164Z,104.97
2024-03-05T09:32:44.642Z,93.43
2024-03-05T09:35:13.845Z,96.40
2024-03-05T09:37:41.961Z,88.33
2024-03-05T09:40:17.961Z,79.77
2024-03-05T09:42:45.425Z,85.77
2024-03-05T09:45:17.169Z,82.43
2024-03-05T09:47:44.816Z,90.70
2024-03-05T09:50:15.726Z,78.37
2024-03-05T09:52:44.883Z,79.30
2024-03-05T09:55:13.930Z,93.03
2024-03-05T09:57:41.823Z,93.03
2024-03-05T10:00:11.490Z,88.00
2024-03-05T10:02:41.825Z,90.70
2024-03-05T10:05:11.207Z,90.63
2024-03-05T10:07:38.894Z,79.53
2024-03-05T10:10:12.265Z,85.47
2024-03-05T10:12:40.563Z,98.17
2024-03-05T10:15:18.406Z,82.90
2024-03-05T10:17:46.456Z,90.73
2024-03-05T10:20:33.819Z,98.73
2024-03-05T10:23:03.444Z,92.53
2024-03-05T10:25:31.901Z,87.67
2024-03-05T10:27:59.718Z,93.67
2024-03-05T10:30:35.400Z,86.77
2024-03-05T10:33:03.843Z,95.13
2024-03-05T10:35:32.508Z,95.90
2024-03-05T10:38:01.236Z,90.73
2024-03-05T10:40:33.967Z,96.93
2024-03-05T10:43:02.411Z,103.30
2024-03-05T10:45:29.813Z,95.03
2024-03-05T10:47:58.376Z,96.40
2024-03-05T10:50:27.293Z,97.97
2024-03-05T10:52:58.155Z,104.20
2024-03-05T10:55:25.733Z,96.20
2024-03-05T10:58:12.284Z,113.20
2024-03-05T11:00:40.381Z,100.73
2024-03-05T11:03:12.188Z,96.03
2024-03-05T11:06:07.177Z,98.30
2024-03-05T11:08:37.581Z,97.80
2024-03-05T11:11:20.073Z,98.67
2024-03-05T11:13:52.657Z,105.43
2024-03-05T11:16:21.371Z,104.03
2024-03-05T11:18:48.176Z,107.40
2024-03-05T11:21:29.649Z,112.53
2024-03-05T11:24:22.418Z,96.70
2024-03-05T11:26:59.036Z,94.60
2024-03-05T11:29:25.702Z,86.43
2024-03-05T11:31:54.086Z,104.83
2024-03-05T11:34:21.269Z,88.17
2024-03-05T11:37:09.443Z,80.57
2024-03-05T11:39:43.684Z,89.20
2024-03-05T11:42:18.177Z,86.07
2024-03-05T11:44:44.828Z,84.57
2024-03-05T11:47:11.687Z,76.13
2024-03-05T11:49:38.914Z,82.30
2024-03-05T11:52:06.266Z,77.33
2024-03-05T11:54:33.343Z,75.33
2024-03-05T11:57:01.336Z,90.27
2024-03-05T11:59:38.307Z,91.13
2024-03-05T12:02:17.803Z,84.77
2024-03-05T12:04:48.473Z,82.50
2024-03-05T12:07:15.707Z,79.83
2024-03-05T12:09:42.573Z,83.83
2024-03-05T12:12:15.195Z,73.67
2024-03-05T12:14:51.687Z,72.57
2024-03-05T12:17:19.693Z,68.23
2024-03-05T12:19:47.984Z,83.70
2024-03-05T12:22:17.394Z,76.70
2024-03-05T12:24:44.294Z,80.83
2024-03-05T12:27:11.042Z,84.43
2024-03-05T12:29:42.084Z,70.17
2024-03-05T12:32:12.205Z,77.33
2024-03-05T12:34:43.943Z,69.10
2024-03-05T12:37:11.940Z,68.23
2024-03-05T12:39:42.826Z,69.37
2024-03-05T12:42:14.750Z,76.37
2024-03-05T12:44:42.439Z,84.33
2024-03-05T12:47:17.372Z,69.57
2024-03-05T12:49:48.735Z,74.50
2024-03-05T12:52:23.543Z,77.70
2024-03-05T12:55:01.851Z,70.07
2024-03-05T12:57:30.488Z,70.67
2024-03-05T13:00:01.631Z,66.53
2024-03-05T13:02:29.201Z,159.70
2024-03-05T13:04:58.752Z,75.73
2024-03-05T13:07:26.630Z,61.93
2024-03-05T13:09:58.475Z,61.63
2024-03-05T13:12:25.480Z,63.67
2024-03-05T13:14:52.241Z,64.43
2024-03-05T13:17:19.001Z,45.40
2024-03-05T13:19:46.179Z,45.33
2024-03-05T13:22:13.221Z,44.73
2024-03-05T13:24:40.614Z,50.70
2024-03-05T13:27:07.969Z,48.27
2024-03-05T13:29:35.708Z,45.93
2024-03-05T13:32:02.534Z,46.90
2024-03-05T13:34:29.389Z,44.73
2024-03-05T13:36:57.511Z,38.00
2024-03-05T13:39:24.258Z,44.77
2024-03-05T13:41:54.121Z,39.73
2024-03-05T13:44:23.120Z,45.80
2024-03-05T13:46:51.733Z,41.23
2024-03-05T13:49:20.769Z,40.40
2024-03-05T13:51:47.756Z,43.90
2024-03-05T13:54:14.591Z,42.37
2024-03-05T13:56:43.788Z,41.07
2024-03-05T13:59:11.273Z,42.47
2024-03-05T14:01:39.310Z,40.20
2024-03-05T14:04:10.617Z,32.30
2024-03-05T14:06:39.729Z,31.20
2024-03-05T14:09:09.691Z,39.77
2024-03-05T14:11:36.828Z,37.00
2024-03-05T14:14:04.580Z,32.80
2024-03-05T14:16:32.428Z,35.77
2024-03-05T14:19:00.194Z,36.60
2024-03-05T14:21:31.262Z,30.30
2024-03-05T14:23:58.987Z,31.67
2024-03-05T14:26:26.097Z,34.10
2024-03-05T14:28:54.075Z,25.97
2024-03-05T14:31:21.552Z,26.40
2024-03-05T14:33:49.314Z,23.87
2024-03-05T14:36:16.631Z,26.10
2024-03-05T14:38:44.070Z,27.90
2024-03-05T14:41:12.943Z,25.07
2024-03-05T14:43:40.234Z,25.60
2024-03-05T14:46:07.794Z,22.80
2024-03-05T14:48:34.670Z,20.00
2024-03-05T14:51:02.756Z,21.00
2024-03-05T14:53:29.736Z,19.37
2024-03-05T14:55:56.442Z,18.43
2024-03-05T14:58:23.498Z,14.70
2024-03-05T15:00:50.426Z,17.90
2024-03-05T15:03:19.002Z,18.67
2024-03-05T15:05:46.560Z,18.50
2024-03-05T15:08:13.788Z,20.47
2024-03-05T15:10:40.790Z,19.23
2024-03-05T15:13:08.832Z,20.10
2024-03-05T15:15:35.576Z,19.30
2024-03-05T15:18:02.390Z,20.97
2024-03-05T15:20:29.208Z,21.73
2024-03-05T15:22:55.984Z,21.43
2024-03-05T15:25:23.791Z,22.10
2024-03-05T15:30:20.935Z,21.53
2024-03-05T15:32:52.030Z,27.63
2024-03-05T15:35:21.463Z,22.13
2024-03-05T15:37:49.231Z,25.50
2024-03-05T15:40:21.831Z,25.60
2024-03-05T15:42:50.950Z,31.10
2024-03-05T15:45:19.372Z,19.50
2024-03-05T15:47:47.405Z,24.67
2024-03-05T15:50:23.399Z,27.63
2024-03-05T15:52:55.730Z,23.80
2024-03-05T15:55:28.976Z,24.23
2024-03-05T15:58:00.284Z,24.13
2024-03-05T16:00:36.237Z,24.03
2024-03-05T16:03:07.998Z,26.57
2024-03-05T16:05:51.721Z,26.37
2024-03-05T16:08:26.966Z,29.60
2024-03-05T16:10:54.676Z,26.37
2024-03-05T16:13:22.373Z,25.83
2024-03-05T16:15:49.640Z,23.10
2024-03-05T16:18:17.210Z,30.80
2024-03-05T16:20:44.807Z,29.73
2024-03-05T16:23:12.248Z,24.13
2024-03-05T16:25:43.130Z,23.20
2024-03-05T16:28:11.374Z,24.37
2024-03-05T16:30:38.758Z,26.70
2024-03-05T16:33:06.521Z,28.80
2024-03-05T16:35:33.711Z,26.50
2024-03-05T16:38:01.428Z,45.70
2024-03-05T16:40:28.380Z,27.93
2024-03-05T16:42:59.182Z,27.90
2024-03-05T16:45:27.583Z,23.13
2024-03-05T16:47:57.049Z,22.73
2024-03-05T16:50:27.897Z,24.27
2024-03-05T16:52:59.153Z,24.90
2024-03-05T16:55:27.255Z,25.20
2024-03-05T16:57:58.368Z,26.40
2024-03-05T17:00:32.136Z,28.20
2024-03-05T17:03:12.569Z,27.00
2024-03-05T17:05:41.756Z,25.80
2024-03-05T17:08:14.997Z,28.33
2024-03-05T17:10:43.829Z,23.80
2024-03-05T17:13:18.731Z,29.03
2024-03-05T17:15:46.992Z,26.17
2024-03-05T17:18:14.212Z,24.43
2024-03-05T17:20:41.316Z,32.57
2024-03-05T17:23:08.834Z,27.50
2024-03-05T17:25:39.737Z,29.37
2024-03-05T17:28:09.696Z,34.30
2024-03-05T17:30:39.046Z,27.23
2024-03-05T17:33:12.731Z,32.93
2024-03-05T17:35:41.848Z,29.60
2024-03-05T17:38:10.841Z,37.20
2024-03-05T17:40:37.850Z,38.50
2024-03-05T17:43:05.059Z,38.00
2024-03-05T17:45:32.815Z,31.10
2024-03-05T17:48:05.904Z,34.00
2024-03-05T17:50:33.925Z,34.10
2024-03-05T17:53:00.876Z,35.73
2024-03-05T17:55:28.859Z,41.83
2024-03-05T17:57:56.943Z,33.63
2024-03-05T18:00:27.748Z,34.60
2024-03-05T18:02:59.959Z,36.37
2024-03-05T18:05:27.858Z,28.50
2024-03-05T18:07:55.462Z,31.97
2024-03-05T18:10:23.939Z,32.07
2024-03-05T18:12:51.961Z,35.60
2024-03-05T18:15:21.015Z,33.87
2024-03-05T18:17:52.127Z,32.10
2024-03-05T18:20:20.971Z,31.00
2024-03-05T18:22:48.167Z,32.83
2024-03-05T18:25:17.673Z,35.23
2024-03-05T18:27:56.826Z,32.93
2024-03-05T18:30:29.348Z,33.83
2024-03-05T18:32:56.576Z,34.43
2024-03-05T18:35:24.736Z,30.47
2024-03-05T18:37:51.774Z,37.07
2024-03-05T18:40:18.632Z,36.90
2024-03-05T18:42:49.134Z,35.57
2024-03-05T18:45:17.003Z,33.63
2024-03-05T18:47:54.754Z,34.63
2024-03-05T18:50:31.127Z,38.30
2024-03-05T18:52:58.826Z,33.77
2024-03-05T18:55:28.203Z,35.97
2024-03-05T18:57:54.946Z,43.63
2024-03-05T19:00:21.807Z,38.10
2024-03-05T19:02:49.391Z,41.90
2024-03-05T19:05:17.461Z,39.57
2024-03-05T19:07:46.681Z,37.53
2024-03-05T19:10:14.074Z,39.70
2024-03-05T19:12:41.111Z,38.07
2024-03-05T19:15:09.751Z,40.67
2024-03-05T19:17:37.347Z,34.73
2024-03-05T19:20:06.010Z,42.13
2024-03-05T19:22:32.886Z,43.37
2024-03-05T19:25:01.012Z,38.17
2024-03-05T19:27:27.736Z,42.60
2024-03-05T19:29:55.765Z,42.00
2024-03-05T19:32:22.736Z,44.47
2024-03-05T19:34:49.584Z,43.20
2024-03-05T19:37:18.180Z,37.10
2024-03-05T19:39:45.103Z,41.03
2024-03-05T19:42:12.647Z,36.43
2024-03-05T19:44:40.215Z,37.83
2024-03-05T19:47:07.301Z,37.97
2024-03-05T19:49:34.049Z,39.10
2024-03-05T19:52:00.962Z,43.47
2024-03-05T19:54:29.140Z,39.10
2024-03-05T19:56:57.052Z,41.30
2024-03-05T19:59:24.034Z,49.37
2024-03-05T20:01:50.855Z,32.60
2024-03-05T20:04:18.779Z,35.13
2024-03-05T20:06:45.504Z,36.97
2024-03-05T20:09:14.418Z,38.77
2024-03-05T20:11:41.496Z,39.07
2024-03-05T20:14:09.860Z,39.63
2024-03-05T20:16:36.982Z,35.50
2024-03-05T20:19:03.764Z,38.93
2024-03-05T20:21:31.081Z,33.50
2024-03-05T20:23:58.805Z,35.20
2024-03-05T20:26:25.481Z,32.70
2024-03-05T20:28:53.635Z,38.43
2024-03-05T20:31:22.733Z,32.73
2024-03-05T20:33:49.809Z,36.03
2024-03-05T20:36:19.517Z,38.30
2024-03-05T20:38:46.559Z,35.10
2024-03-05T20:41:14.402Z,35.23
2024-03-05T20:43:41.676Z,35.93
2024-03-05T20:46:10.909Z,35.67
2024-03-05T20:48:38.228Z,31.70
2024-03-05T20:51:05.259Z,34.70
2024-03-05T20:53:31.970Z,45.53
2024-03-05T20:55:59.183Z,48.10
2024-03-05T20:58:25.950Z,37.73
2024-03-05T21:00:52.619Z,45.60
2024-03-05T21:03:24.555Z,34.83
2024-03-05T21:05:51.434Z,38.23
2024-03-05T21:08:18.270Z,43.10
2024-03-05T21:10:46.358Z,44.70
2024-03-05T21:13:13.542Z,50.30
2024-03-05T21:15:40.286Z,50.13
2024-03-05T21:18:11.608Z,51.83
2024-03-05T21:20:38.335Z,49.70
2024-03-05T21:23:05.520Z,49.07
2024-03-05T21:25:40.263Z,48.70
2024-03-05T21:28:17.415Z,43.03
2024-03-05T21:30:44.081Z,55.77
2024-03-05T21:33:10.809Z,48.93
2024-03-05T21:35:37.540Z,50.70
2024-03-05T21:38:06.166Z,50.37
2024-03-05T21:40:32.933Z,52.17
2024-03-05T21:43:00.239Z,53.20
2024-03-05T21:45:27.969Z,54.33
2024-03-05T21:47:54.649Z,55.00
2024-03-05T21:50:21.447Z,55.13
2024-03-05T21:52:50.990Z,63.33
2024-03-05T21:55:18.200Z,56.00
2024-03-05T21:57:45.279Z,46.77
2024-03-05T22:00:12.998Z,50.23
2024-03-05T22:02:42.041Z,53.20
2024-03-05T22:05:09.747Z,47.97
2024-03-05T22:07:36.766Z,45.10
2024-03-05T22:10:07.006Z,46.70
2024-03-05T22:12:35.077Z,48.47
2024-03-05T22:15:01.849Z,43.47
2024-03-05T22:17:28.592Z,50.60
2024-03-05T22:19:55.473Z,45.43
2024-03-05T22:22:23.843Z,50.50
2024-03-05T22:24:50.796Z,48.33
2024-03-05T22:27:17.608Z,45.10
2024-03-05T22:29:44.371Z,49.37
2024-03-05T22:32:11.200Z,44.03
2024-03-05T22:34:38.039Z,51.10
2024-03-05T22:37:05.320Z,46.83
2024-03-05T22:39:32.041Z,43.73
2024-03-05T22:41:58.770Z,46.97
2024-03-05T22:44:25.498Z,48.37
2024-03-05T22:46:52.377Z,51.00
2024-03-05T22:49:19.088Z,44.60
2024-03-05T22:51:46.358Z,41.67
2024-03-05T22:54:13.105Z,48.13
2024-03-05T22:56:40.358Z,48.17
2024-03-05T22:59:07.118Z,48.07
2024-03-05T23:01:33.910Z,40.77
2024-03-05T23:04:00.676Z,39.77
2024-03-05T23:06:27.353Z,46.13
2024-03-05T23:08:54.936Z,46.10
2024-03-05T23:11:21.826Z,41.20
2024-03-05T23:13:48.708Z,44.63
2024-03-05T23:16:15.700Z,44.40
2024-03-05T23:18:43.658Z,44.97
2024-03-05T23:21:12.399Z,43.30
2024-03-05T23:23:41.493Z,50.27
2024-03-05T23:26:08.423Z,42.87
2024-03-05T23:28:35.180Z,39.80
2024-03-05T23:31:01.958Z,45.00
2024-03-05T23:33:28.657Z,43.20
2024-03-05T23:35:55.431Z,38.90
2024-03-05T23:38:22.144Z,41.43
2024-03-05T23:40:49.426Z,42.87
2024-03-05T23:43:16.086Z,46.47
2024-03-05T23:45:42.738Z,46.10
2024-03-05T23:48:09.732Z,39.77
2024-03-05T23:50:36.627Z,44.33
2024-03-05T23:53:03.425Z,39.10
2024-03-05T23:55:30.223Z,47.07
2024-03-05T23:57:57.013Z,51.17
